Latest Weather Observations for Aireys Inlet

IDV60801

Issued at 11:32 pm EST Sunday 23 April 2017 (issued every 30 minutes, with the page automatically refreshed every 10 minutes)

About weather observations | Map of weather stations | Latest weather observations for VIC | Other Formats
Station Details ID: 090180 Name: AIREYS INLET Lat: -38.46 Lon: 144.09 Height: 105.0 m
Data from the previous 72 hours. | See also: Recent months at Aireys Inlet
Date/Time
EST
Temp
°C
App
Temp
°C
Dew
Point
°C
Rel
Hum
%
Delta-T
°C
Wind Press
QNH
hPa
Press
MSL
hPa
Rain since
9am
mm
Dir  Spd
km/h
Gust
km/h
Spd
kts
Gust
kts
23/11:30pm 14.6 15.0 13.6 94 0.6 WNW 4 6 2 3 - - -
23/11:00pm 14.6 15.0 13.8 95 0.4 W 4 6 2 3 - - -
23/10:30pm 14.7 15.6 13.9 95 0.5 WSW 2 4 1 2 - - -
23/10:00pm 14.6 14.7 13.8 95 0.4 WSW 6 9 3 5 - - -
23/09:30pm 14.7 14.2 13.9 95 0.5 WSW 9 13 5 7 - - -
23/09:00pm 14.7 13.5 13.9 95 0.5 SW 13 22 7 12 - - -
23/08:30pm 14.8 13.3 14.2 96 0.3 SW 15 22 8 12 - - -
23/08:00pm 14.8 12.9 14.2 96 0.3 SW 17 24 9 13 - - -
23/07:30pm 14.7 13.2 14.1 96 0.3 SW 15 22 8 12 - - -
23/07:00pm 14.6 12.3 14.0 96 0.3 SW 19 26 10 14 - - -
23/06:30pm 14.6 12.6 14.0 96 0.3 SW 17 30 9 16 - - 1.4
23/06:00pm 14.5 11.9 13.9 96 0.3 SW 20 32 11 17 - - 1.4
23/05:30pm 14.5 11.9 13.9 96 0.3 SW 20 30 11 16 - - 1.4
23/05:00pm 14.7 12.2 14.1 96 0.3 SW 20 32 11 17 - - 1.4
23/04:30pm 14.9 11.3 14.3 96 0.3 SW 26 37 14 20 - - 1.4
23/04:00pm 15.2 12.5 14.6 96 0.3 SW 22 33 12 18 - - 1.4
23/03:30pm 15.3 13.2 14.7 96 0.3 SW 19 32 10 17 - - 1.4
23/03:00pm 15.5 13.5 14.9 96 0.3 SW 19 32 10 17 - - 1.4
23/02:30pm 15.6 13.6 15.0 96 0.3 SW 19 28 10 15 - - 1.4
23/02:00pm 15.9 14.4 15.3 96 0.3 SW 17 30 9 16 - - 1.4
23/01:30pm 16.3 15.7 15.7 96 0.4 SW 13 22 7 12 - - 1.4
23/01:00pm 16.0 14.9 15.4 96 0.4 SW 15 22 8 12 - - 1.4
23/12:30pm 15.9 15.2 15.3 96 0.3 SW 13 19 7 10 - - 1.0
23/12:00pm 16.1 16.2 15.5 96 0.4 SW 9 15 5 8 - - 0.2
23/11:30am 16.0 15.7 15.4 96 0.4 SW 11 17 6 9 - - 0.0
23/11:00am 16.1 15.4 15.5 96 0.4 SW 13 20 7 11 - - 0.0
23/10:30am 16.1 15.4 15.5 96 0.4 SW 13 20 7 11 - - 0.0
23/10:00am 15.9 15.5 15.3 96 0.3 WSW 11 15 6 8 - - 0.0
23/09:30am 15.8 15.8 15.2 96 0.3 WSW 9 13 5 7 - - 0.0
23/09:00am 15.8 16.2 15.2 96 0.3 WSW 7 15 4 8 - - -
23/08:30am 15.7 15.7 15.1 96 0.3 WSW 9 13 5 7 - - -
23/08:00am 15.6 15.9 15.0 96 0.3 WSW 7 11 4 6 - - -
23/07:30am 15.4 14.9 14.8 96 0.3 SW 11 15 6 8 - - -
23/07:00am 15.5 15.0 14.9 96 0.3 SW 11 17 6 9 - - -
23/06:30am 15.6 14.4 15.0 96 0.3 SW 15 22 8 12 - - -
23/06:00am 15.6 14.0 15.0 96 0.3 SW 17 26 9 14 - - -
23/05:30am 15.8 15.0 15.0 95 0.5 SW 13 17 7 9 - - -
23/05:00am 15.9 15.1 15.1 95 0.5 SW 13 24 7 13 - - -
23/04:30am 16.1 15.7 15.3 95 0.5 WSW 11 17 6 9 - - -
23/04:00am 16.1 15.7 15.1 94 0.6 SW 11 17 6 9 - - -
23/03:30am 16.1 16.4 15.0 93 0.6 NW 7 11 4 6 - - -
23/03:00am 16.1 17.0 15.1 94 0.6 W 4 6 2 3 - - -
23/02:30am 16.2 16.8 15.2 94 0.6 W 6 7 3 4 - - -
23/02:00am 16.4 16.4 15.1 92 0.8 SW 9 15 5 8 - - -
23/01:30am 16.2 16.6 14.7 91 0.9 W 6 6 3 3 - - -
23/01:00am 16.1 16.3 14.8 92 0.8 W 7 7 4 4 - - -
23/12:30am 16.1 16.9 14.8 92 0.8 WNW 4 6 2 3 - - -
 
Date/Time
EST
Temp
°C
App
Temp
°C
Dew
Point
°C
Rel
Hum
%
Delta-T
°C
Wind Press
QNH
hPa
Press
MSL
hPa
Rain since
9am
mm
Dir  Spd
km/h
Gust
km/h
Spd
kts
Gust
kts
22/08:00am 16.1 14.7 14.6 91 0.9 NW 15 30 8 16 - - -
22/07:30am 16.1 14.0 14.6 91 0.9 NW 19 24 10 13 - - -
22/07:00am 16.0 15.8 14.7 92 0.7 NW 9 13 5 7 - - -
22/06:30am 16.0 16.2 14.7 92 0.7 NNW 7 13 4 7 - - 4.2
22/06:00am 16.0 16.4 14.7 92 0.7 NNW 6 7 3 4 - - 4.2
22/05:30am 15.9 16.2 14.6 92 0.7 NNW 6 9 3 5 - - 4.2
22/05:00am 16.0 16.3 14.9 93 0.6 WNW 7 13 4 7 - - 4.2
22/04:30am 15.9 15.7 14.8 93 0.6 NW 9 15 5 8 - - 4.2
22/04:00am 15.9 15.4 14.8 93 0.6 NW 11 17 6 9 - - 4.2
22/03:30am 15.9 16.1 14.8 93 0.6 NW 7 17 4 9 - - 4.2
22/03:00am 15.9 15.7 14.8 93 0.6 NNW 9 13 5 7 - - 4.2
22/02:30am 15.9 16.1 14.8 93 0.6 NNW 7 11 4 6 - - 4.2
22/02:00am 16.0 16.3 15.0 94 0.6 N 7 9 4 5 - - 4.2
22/01:30am 15.9 15.9 15.1 95 0.5 NNW 9 13 5 7 - - 4.2
22/01:00am 16.0 16.4 15.4 96 0.4 N 7 11 4 6 - - 4.2
22/12:30am 16.1 15.8 15.5 96 0.4 NNW 11 17 6 9 - - 4.2
22/12:00am 16.2 16.3 15.6 96 0.4 NNW 9 15 5 8 - - 4.2
 
Date/Time
EST
Temp
°C
App
Temp
°C
Dew
Point
°C
Rel
Hum
%
Delta-T
°C
Wind Press
QNH
hPa
Press
MSL
hPa
Rain since
9am
mm
Dir  Spd
km/h
Gust
km/h
Spd
kts
Gust
kts
21/11:30pm 16.5 17.1 15.9 96 0.4 NNW 7 9 4 5 - - 4.0
21/11:00pm 16.4 17.0 15.8 96 0.4 NW 7 11 4 6 - - 2.4
21/10:30pm 16.4 17.0 15.8 96 0.4 N 7 11 4 6 - - 2.2
21/10:00pm 16.4 16.5 15.6 95 0.5 N 9 13 5 7 - - 1.6
21/09:30pm 16.5 16.7 15.7 95 0.5 NNW 9 15 5 8 - - 0.8
21/09:00pm 17.3 16.2 15.3 88 1.2 NW 15 26 8 14 - - 0.2
21/08:30pm 17.2 17.2 15.2 88 1.2 NNW 9 13 5 7 - - 0.2
21/08:00pm 17.3 16.9 15.1 87 1.3 NW 11 20 6 11 - - 0.2
21/07:30pm 17.8 17.8 15.1 84 1.6 NW 9 13 5 7 - - 0.2
21/07:00pm 17.9 18.4 15.0 83 1.7 NNW 6 9 3 5 - - 0.2
21/06:30pm 18.0 18.6 15.3 84 1.6 N 6 7 3 4 - - 0.2
21/06:00pm 18.3 18.7 14.8 80 2.0 NW 6 7 3 4 - - 0.2
21/05:30pm 18.8 19.3 14.9 78 2.3 NW 6 9 3 5 - - 0.2
21/05:00pm 19.3 19.1 14.8 75 2.6 NNW 9 15 5 8 - - 0.2
21/04:30pm 20.1 19.5 14.5 70 3.3 NNW 11 17 6 9 - - 0.2
21/04:00pm 19.8 19.5 15.4 76 2.6 NW 11 17 6 9 - - 0.2
21/03:30pm 19.9 18.3 15.1 74 2.8 WNW 17 24 9 13 - - 0.2
21/03:00pm 20.0 18.1 15.2 74 2.8 WNW 19 26 10 14 - - 0.2
21/02:30pm 19.6 18.0 15.0 75 2.7 WNW 17 24 9 13 - - 0.2
21/02:00pm 19.9 19.4 16.0 78 2.3 NNW 13 22 7 12 - - 0.2
21/01:30pm 19.5 17.5 15.6 78 2.3 NW 20 33 11 18 - - 0.2
21/01:00pm 19.7 19.1 16.7 83 1.8 NW 15 24 8 13 - - 0.2
21/12:30pm 18.7 18.5 17.7 94 0.6 N 15 22 8 12 - - 0.0
21/12:00pm 17.5 17.4 16.9 96 0.4 N 13 20 7 11 - - 0.0
21/11:30am 16.9 16.2 16.3 96 0.4 NNE 15 22 8 12 - - 0.0
21/11:00am 16.5 15.6 15.9 96 0.4 NNE 15 24 8 13 - - 0.0
21/10:30am 16.3 15.7 15.7 96 0.4 NNE 13 20 7 11 - - 0.0
21/10:00am 15.9 15.5 15.3 96 0.3 NNE 11 19 6 10 - - 0.0
21/09:30am 15.6 15.5 15.0 96 0.3 NNE 9 17 5 9 - - 0.0
21/09:00am 15.5 14.2 14.9 96 0.3 NE 15 32 8 17 - - -
21/08:30am 15.5 13.9 14.9 96 0.3 NE 17 30 9 16 - - -
21/08:00am 15.5 13.5 14.9 96 0.3 ENE 19 30 10 16 - - -
21/07:30am 15.4 14.0 14.6 95 0.5 NE 15 20 8 11 - - -
21/07:00am 15.3 14.3 14.5 95 0.5 NE 13 20 7 11 - - -
21/06:30am 15.3 14.7 14.5 95 0.5 NE 11 20 6 11 - - -
21/06:00am 15.5 15.7 14.7 95 0.5 NE 7 15 4 8 - - -
21/05:30am 15.4 16.1 14.6 95 0.5 ENE 4 7 2 4 - - -
21/05:00am 15.4 16.1 14.6 95 0.5 ENE 4 6 2 3 - - -
21/04:30am 15.4 16.1 14.4 94 0.6 NNE 4 6 2 3 - - -
21/04:00am 15.4 15.7 14.4 94 0.6 NNE 6 7 3 4 - - -
21/03:30am 15.5 15.8 14.4 93 0.6 NNW 6 6 3 3 - - -
21/03:00am 15.7 16.0 14.4 92 0.7 N 6 6 3 3 - - -
21/02:30am 15.9 16.6 14.4 91 0.9 NNW 4 7 2 4 - - -
21/02:00am 16.1 16.4 14.5 90 0.9 NW 6 9 3 5 - - -
21/01:30am 16.0 16.0 14.2 89 1.0 WNW 7 13 4 7 - - -
21/01:00am 16.2 16.0 14.6 90 0.9 WNW 9 13 5 7 - - -
21/12:30am 16.0 16.2 14.7 92 0.7 W 7 9 4 5 - - -
21/12:00am 16.1 16.3 14.6 91 0.9 WSW 7 11 4 6 - - -

Other Formats:

Comma delimited format used in spreadsheet applications
http://www.bom.gov.au/fwo/IDV60801/IDV60801.94846.axf

JavaScript Object Notation format (JSON) in row-major order
http://www.bom.gov.au/fwo/IDV60801/IDV60801.94846.json